Time;durP1;ratioP1;P1;durP2;ratioP2;P2;SDS_P1;SDS_P2;PMS_P1;PMS_P2;Temp;Humidity;BMP_temperature;BMP_pressure;BME280_temperature;BME280_humidity;BME280_pressure;Samples;Min_cycle;Max_cycle;Signal;HPM_P1;HPM_P2
2023/03/10 00:00:04;;;;;;;;;;;;;;;13.21;69.14;98786.19;349134;28;895;-76
2023/03/10 00:00:15;;;;;;;;;;;;;;;13.17;69.37;98789.97;350476;28;1342;-73
2023/03/10 00:00:25;;;;;;;;;;;;;;;13.14;69.43;98790.13;351835;28;1448;-76
2023/03/10 00:00:35;;;;;;;;;;;;;;;13.13;69.44;98789.28;353749;27;1810;-76
2023/03/10 00:00:45;;;;;;;;;;;;;;;13.11;69.55;98791.16;353471;27;905;-76
2023/03/10 00:00:56;;;;;;;;;;;;;;;13.11;69.62;98787.69;352032;28;1312;-76
2023/03/10 00:01:10;;;;;;;;;;;;;;;13.12;69.19;98786.75;353463;28;795;-75
2023/03/10 00:01:21;;;;;;;;;;;;;;;13.12;69.38;98787.59;353375;28;1230;-75
2023/03/10 00:01:31;;;;;;;;;;;;;;;13.15;69.09;98783.94;350979;28;1821;-73
2023/03/10 00:01:41;;;;;;;;;;;;;;;13.15;69.41;98787.41;352633;28;1579;-74
2023/03/10 00:01:52;;;;;;;;;;;;;;;13.17;69.21;98784.72;352285;28;1739;-73
2023/03/10 00:02:02;;;;;;;;;;;;;;;13.18;69.32;98783.75;352628;28;1646;-73
2023/03/10 00:02:12;;;;;;;;;;;;;;;13.17;69.22;98789.97;350171;28;940;-73
2023/03/10 00:02:22;;;;;;;;;;;;;;;13.16;69.14;98789.13;351842;28;884;-73
2023/03/10 00:02:33;;;;;;;;;;;;;;;13.17;69.05;98789.97;348395;28;1561;-74
2023/03/10 00:02:48;;;;;;;;;;;;;;;13.16;69.23;98786.50;346385;28;856;-73
2023/03/10 00:02:58;;;;;;;;;;;;;;;13.18;68.99;98791.66;349053;28;942;-74
2023/03/10 00:03:08;;;;;;;;;;;;;;;13.18;68.96;98792.50;349120;28;891;-73
2023/03/10 00:03:18;;;;;;;;;;;;;;;13.18;69.26;98783.75;347676;28;1200;-73
2023/03/10 00:03:29;;;;;;;;;;;;;;;13.18;69.00;98786.38;344680;28;1587;-74
2023/03/10 00:03:39;;;;;;;;;;;;;;;13.18;68.98;98786.38;345093;28;1687;-73
2023/03/10 00:03:49;;;;;;;;;;;;;;;13.17;69.10;98784.72;346456;28;844;-77
2023/03/10 00:04:00;;;;;;;;;;;;;;;13.17;68.91;98792.59;347804;28;1258;-72
2023/03/10 00:04:10;;;;;;;;;;;;;;;13.17;69.13;98789.97;347585;28;1665;-72
2023/03/10 00:04:20;;;;;;;;;;;;;;;13.18;68.95;98791.66;347633;28;1200;-74
2023/03/10 00:04:30;;;;;;;;;;;;;;;13.18;69.24;98789.88;347783;28;812;-75
2023/03/10 00:04:40;;;;;;;;;;;;;;;13.19;69.18;98786.28;342377;28;1257;-73
2023/03/10 00:04:51;;;;;;;;;;;;;;;13.19;68.87;98788.06;342930;28;1242;-73
2023/03/10 00:05:02;;;;;;;;;;;;;;;13.20;68.95;98795.03;342420;28;1292;-73
2023/03/10 00:05:12;;;;;;;;;;;;;;;13.21;68.75;98794.06;343660;28;832;-73
2023/03/10 00:05:23;;;;;;;;;;;;;;;13.22;69.04;98790.50;344709;28;1293;-74
2023/03/10 00:05:33;;;;;;;;;;;;;;;13.22;69.05;98787.88;346563;28;926;-73
2023/03/10 00:05:43;;;;;;;;;;;;;;;13.23;68.84;98794.81;345014;28;926;-72
2023/03/10 00:05:53;;;;;;;;;;;;;;;13.23;68.85;98790.41;345029;28;1334;-74
2023/03/10 00:06:04;;;;;;;;;;;;;;;13.24;68.78;98796.50;346276;28;893;-74
2023/03/10 00:06:15;;;;;;;;;;;;;;;13.24;68.79;98788.63;344946;28;872;-73
2023/03/10 00:06:25;;;;;;;;;;;;;;;13.24;69.01;98789.47;342363;28;1183;-73
2023/03/10 00:06:37;;;;;;;;;;;;;;;13.26;68.82;98794.63;342821;28;1066;-73
2023/03/10 00:06:47;;;;;;;;;;;;;;;13.26;68.95;98790.22;341839;28;1217;-73
2023/03/10 00:06:57;;;;;;;;;;;;;;;13.27;68.82;98796.31;341119;29;873;-74
2023/03/10 00:07:07;;;;;;;;;;;;;;;13.28;68.49;98798.84;339159;29;1674;-73
2023/03/10 00:07:18;;;;;;;;;;;;;;;13.28;68.84;98793.59;339652;29;1902;-74
2023/03/10 00:07:28;;;;;;;;;;;;;;;13.28;68.44;98793.59;341048;29;905;-73
2023/03/10 00:07:38;;;;;;;;;;;;;;;13.30;68.46;98796.13;343093;28;1447;-74
2023/03/10 00:07:49;;;;;;;;;;;;;;;13.30;68.68;98796.13;340465;29;861;-74
2023/03/10 00:07:59;;;;;;;;;;;;;;;13.29;68.44;98800.53;339710;29;1065;-73
2023/03/10 00:08:10;;;;;;;;;;;;;;;13.30;68.57;98796.13;343220;28;1005;-73
2023/03/10 00:08:20;;;;;;;;;;;;;;;13.30;68.79;98799.59;343973;28;1427;-73
2023/03/10 00:08:30;;;;;;;;;;;;;;;13.31;68.81;98803.91;343681;28;1352;-73
2023/03/10 00:08:40;;;;;;;;;;;;;;;13.30;68.84;98796.13;341962;28;1595;-73
2023/03/10 00:08:51;;;;;;;;;;;;;;;13.30;68.84;98790.84;340671;29;1440;-75
2023/03/10 00:09:01;;;;;;;;;;;;;;;13.29;69.01;98799.69;334072;29;2204;-73
2023/03/10 00:09:12;;;;;;;;;;;;;;;13.29;69.10;98797.91;331944;29;815;-73
2023/03/10 00:09:23;;;;;;;;;;;;;;;13.30;69.17;98798.75;333153;29;2591;-74
2023/03/10 00:09:33;;;;;;;;;;;;;;;13.29;69.17;98797.91;333287;29;1660;-74
2023/03/10 00:09:43;;;;;;;;;;;;;;;13.29;69.01;98794.44;334511;29;850;-75
2023/03/10 00:09:53;;;;;;;;;;;;;;;13.29;69.40;98800.53;333492;29;867;-74
2023/03/10 00:10:04;;;;;;;;;;;;;;;13.30;69.40;98801.38;333096;29;1315;-74
2023/03/10 00:10:15;;;;;;;;;;;;;;;13.30;69.39;98794.31;333320;29;783;-74
2023/03/10 00:10:25;;;;;;;;;;;;;;;13.31;69.07;98796.00;334106;29;1808;-73
2023/03/10 00:10:37;;;;;;;;;;;;;;;13.32;69.15;98794.22;332624;29;2177;-73
2023/03/10 00:10:47;;;;;;;;;;;;;;;13.32;69.29;98799.47;330479;29;2181;-73
2023/03/10 00:10:57;;;;;;;;;;;;;;;13.30;69.21;98796.97;331916;29;1289;-73
2023/03/10 00:11:07;;;;;;;;;;;;;;;13.28;69.48;98803.25;327500;29;3200;-73
2023/03/10 00:11:18;;;;;;;;;;;;;;;13.27;69.15;98798.94;324747;30;2624;-75
2023/03/10 00:11:28;;;;;;;;;;;;;;;13.23;69.12;98800.91;324755;30;1353;-73
2023/03/10 00:11:38;;;;;;;;;;;;;;;13.22;69.21;98803.66;327463;30;2691;-74
2023/03/10 00:11:48;;;;;;;;;;;;;;;13.22;69.06;98798.38;325934;30;2078;-74
2023/03/10 00:11:58;;;;;;;;;;;;;;;13.22;68.97;98803.66;326062;30;883;-74
2023/03/10 00:12:09;;;;;;;;;;;;;;;13.20;69.03;98806.38;325635;30;1381;-74
2023/03/10 00:12:19;;;;;;;;;;;;;;;13.20;69.06;98800.28;327253;30;2109;-74
2023/03/10 00:12:29;;;;;;;;;;;;;;;13.19;68.88;98795.97;328356;30;1160;-74
2023/03/10 00:12:39;;;;;;;;;;;;;;;13.19;69.10;98799.44;325497;30;2459;-74
2023/03/10 00:12:50;;;;;;;;;;;;;;;13.20;69.10;98801.13;325260;30;2819;-74
2023/03/10 00:13:00;;;;;;;;;;;;;;;13.16;69.11;98804.03;324823;30;876;-74
2023/03/10 00:13:10;;;;;;;;;;;;;;;13.11;69.63;98801.66;319168;30;2819;-74
2023/03/10 00:13:20;;;;;;;;;;;;;;;13.03;69.88;98797.84;320435;30;3046;-74
2023/03/10 00:13:31;;;;;;;;;;;;;;;13.04;69.52;98799.53;320763;30;3802;-74
2023/03/10 00:13:41;;;;;;;;;;;;;;;13.06;70.05;98802.91;317720;31;778;-74
2023/03/10 00:13:51;;;;;;;;;;;;;;;13.06;70.10;98802.91;318764;30;3608;-74
2023/03/10 00:14:01;;;;;;;;;;;;;;;13.06;69.70;98798.50;320579;30;2613;-74
2023/03/10 00:14:12;;;;;;;;;;;;;;;13.07;69.67;98805.44;317508;31;1315;-73
2023/03/10 00:14:22;;;;;;;;;;;;;;;13.05;69.99;98790.72;317607;31;2191;-73
2023/03/10 00:14:32;;;;;;;;;;;;;;;13.11;69.76;98803.47;315791;31;2789;-73
2023/03/10 00:14:42;;;;;;;;;;;;;;;13.11;69.78;98806.09;315453;31;792;-74
2023/03/10 00:14:53;;;;;;;;;;;;;;;13.15;69.52;98807.56;314374;31;3617;-74
2023/03/10 00:15:04;;;;;;;;;;;;;;;13.13;69.58;98802.41;315153;31;4093;-74
2023/03/10 00:15:14;;;;;;;;;;;;;;;13.12;69.75;98805.13;314138;31;1353;-74
2023/03/10 00:15:24;;;;;;;;;;;;;;;13.12;69.75;98802.50;308343;31;4186;-74
2023/03/10 00:15:34;;;;;;;;;;;;;;;13.12;69.56;98802.50;307523;31;4242;-73
2023/03/10 00:15:45;;;;;;;;;;;;;;;13.14;69.79;98805.88;308833;32;915;-73
2023/03/10 00:15:55;;;;;;;;;;;;;;;13.15;69.64;98802.31;307238;31;4831;-73
2023/03/10 00:16:05;;;;;;;;;;;;;;;13.15;69.70;98802.31;307167;32;5000;-73
2023/03/10 00:16:17;;;;;;;;;;;;;;;13.16;69.49;98804.03;307574;32;1969;-73
2023/03/10 00:16:27;;;;;;;;;;;;;;;13.17;69.54;98806.56;306561;32;1333;-74
2023/03/10 00:16:38;;;;;;;;;;;;;;;13.18;69.43;98802.16;305800;32;3723;-73
2023/03/10 00:16:48;;;;;;;;;;;;;;;13.19;69.73;98809.09;305885;32;4187;-74
2023/03/10 00:16:58;;;;;;;;;;;;;;;13.12;69.73;98799.88;306672;32;931;-73
2023/03/10 00:17:08;;;;;;;;;;;;;;;13.12;69.58;98797.25;304658;32;5924;-73
2023/03/10 00:17:19;;;;;;;;;;;;;;;13.09;69.62;98797.47;303329;32;6350;-73
2023/03/10 00:17:29;;;;;;;;;;;;;;;13.06;69.91;98797.66;301509;32;857;-73
2023/03/10 00:17:40;;;;;;;;;;;;;;;13.04;69.90;98789.88;298502;32;6033;-73
2023/03/10 00:17:51;;;;;;;;;;;;;;;13.06;69.66;98801.13;295576;32;5786;-73
2023/03/10 00:18:01;;;;;;;;;;;;;;;13.05;69.71;98794.19;299484;32;6437;-73
2023/03/10 00:18:11;;;;;;;;;;;;;;;13.04;69.89;98789.88;299366;33;850;-74
2023/03/10 00:18:21;;;;;;;;;;;;;;;13.03;69.92;98793.44;299560;32;7095;-74
2023/03/10 00:18:32;;;;;;;;;;;;;;;13.03;69.78;98789.97;297891;33;5186;-73
2023/03/10 00:18:42;;;;;;;;;;;;;;;12.99;69.78;98792.81;296263;33;970;-73
2023/03/10 00:18:52;;;;;;;;;;;;;;;12.91;70.10;98789.00;294019;33;5056;-73
2023/03/10 00:19:03;;;;;;;;;;;;;;;12.90;70.30;98782.91;293906;33;7238;-73
2023/03/10 00:19:13;;;;;;;;;;;;;;;12.91;70.01;98778.47;297361;33;835;-73
2023/03/10 00:19:23;;;;;;;;;;;;;;;12.93;70.09;98787.09;296397;33;7522;-73
2023/03/10 00:19:33;;;;;;;;;;;;;;;12.93;70.23;98782.69;295856;33;7913;-73
2023/03/10 00:19:43;;;;;;;;;;;;;;;12.93;70.01;98779.22;296314;33;871;-73
2023/03/10 00:19:54;;;;;;;;;;;;;;;12.94;69.99;98783.53;293872;33;8885;-74
2023/03/10 00:20:10;;;;;;;;;;;;;;;12.93;69.99;98780.06;293678;33;8046;-75
2023/03/10 00:20:21;;;;;;;;;;;;;;;12.90;70.27;98780.28;293873;33;9268;-75
2023/03/10 00:22:22;;;;;;;;;;;;;;;13.08;69.70;98782.63;2504741;27;19922;-73
2023/03/10 00:22:33;;;;;;;;;;;;;;;13.09;69.61;98777.28;354366;27;2023;-73
2023/03/10 00:22:44;;;;;;;;;;;;;;;13.11;69.34;98780.66;352131;28;2176;-73
2023/03/10 00:22:54;;;;;;;;;;;;;;;13.12;69.38;98778.88;350741;28;1934;-74
2023/03/10 00:23:04;;;;;;;;;;;;;;;13.14;69.28;98775.19;350258;28;2006;-73
2023/03/10 00:23:14;;;;;;;;;;;;;;;13.14;69.28;98779.63;348141;28;1227;-73
2023/03/10 00:23:25;;;;;;;;;;;;;;;13.15;69.21;98776.03;349096;28;924;-73
2023/03/10 00:23:35;;;;;;;;;;;;;;;13.16;69.32;98778.59;349001;28;863;-73
2023/03/10 00:23:45;;;;;;;;;;;;;;;13.16;68.97;98781.22;348394;28;1959;-73
2023/03/10 00:23:56;;;;;;;;;;;;;;;13.17;69.17;98779.44;349200;28;1230;-74
2023/03/10 00:24:06;;;;;;;;;;;;;;;13.18;69.17;98775.88;350550;28;903;-74
2023/03/10 00:24:16;;;;;;;;;;;;;;;13.18;69.02;98781.13;349944;28;1334;-74
2023/03/10 00:24:26;;;;;;;;;;;;;;;13.20;69.06;98784.50;351729;28;1330;-74
2023/03/10 00:24:37;;;;;;;;;;;;;;;13.20;69.22;98780.09;349091;28;1347;-74
2023/03/10 00:24:47;;;;;;;;;;;;;;;13.19;69.35;98778.41;349140;28;863;-73
2023/03/10 00:24:57;;;;;;;;;;;;;;;13.19;69.39;98778.41;350757;28;808;-72
2023/03/10 00:25:08;;;;;;;;;;;;;;;13.21;69.38;98786.19;350702;28;1014;-74
2023/03/10 00:25:18;;;;;;;;;;;;;;;13.19;69.12;98781.03;349227;28;1224;-74
2023/03/10 00:25:28;;;;;;;;;;;;;;;13.19;69.07;98786.28;351795;28;1189;-74
2023/03/10 00:25:38;;;;;;;;;;;;;;;13.19;69.18;98783.66;351923;28;1467;-74
2023/03/10 00:25:53;;;;;;;;;;;;;;;13.20;69.09;98779.25;353215;28;1191;-73
2023/03/10 00:26:03;;;;;;;;;;;;;;;13.20;69.13;98784.50;352847;28;840;-73
2023/03/10 00:26:14;;;;;;;;;;;;;;;13.21;69.23;98787.03;353274;28;954;-73
2023/03/10 00:26:26;;;;;;;;;;;;;;;13.22;69.28;98780.84;350827;28;1197;-73
2023/03/10 00:26:37;;;;;;;;;;;;;;;13.23;68.88;98779.06;350410;28;1252;-74
2023/03/10 00:26:50;;;;;;;;;;;;;;;13.24;69.16;98784.22;350652;28;946;-74
2023/03/10 00:27:00;;;;;;;;;;;;;;;13.26;68.99;98778.84;350448;28;1323;-75
2023/03/10 00:27:10;;;;;;;;;;;;;;;13.25;68.72;98782.44;347679;28;1247;-74
2023/03/10 00:27:21;;;;;;;;;;;;;;;13.26;68.70;98784.13;347849;28;742;-75
2023/03/10 00:27:31;;;;;;;;;;;;;;;13.26;68.96;98778.84;347688;28;1295;-74
2023/03/10 00:27:41;;;;;;;;;;;;;;;13.25;69.19;98777.19;348808;28;1329;-73
2023/03/10 00:27:51;;;;;;;;;;;;;;;13.24;69.05;98778.97;349382;28;836;-72
2023/03/10 00:28:02;;;;;;;;;;;;;;;13.24;68.91;98778.97;349181;28;932;-73
2023/03/10 00:28:12;;;;;;;;;;;;;;;13.23;69.18;98781.69;350577;28;1096;-73
2023/03/10 00:28:22;;;;;;;;;;;;;;;13.23;68.89;98781.69;352182;28;863;-73
2023/03/10 00:28:33;;;;;;;;;;;;;;;13.20;69.39;98780.09;351816;28;950;-74
2023/03/10 00:28:43;;;;;;;;;;;;;;;13.20;69.00;98779.25;348828;28;1044;-74
2023/03/10 00:28:53;;;;;;;;;;;;;;;13.18;69.00;98775.88;347797;28;835;-73
2023/03/10 00:29:03;;;;;;;;;;;;;;;13.18;69.09;98775.88;351437;28;1319;-73
2023/03/10 00:29:14;;;;;;;;;;;;;;;13.16;69.05;98777.75;350479;28;1213;-74
2023/03/10 00:29:24;;;;;;;;;;;;;;;13.09;69.31;98771.19;350703;28;986;-74
2023/03/10 00:29:34;;;;;;;;;;;;;;;13.12;69.39;98779.72;349313;28;859;-73
2023/03/10 00:29:44;;;;;;;;;;;;;;;13.13;69.34;98777.94;350125;28;839;-73
2023/03/10 00:29:55;;;;;;;;;;;;;;;13.15;69.38;98781.31;350657;28;1041;-74
2023/03/10 00:30:05;;;;;;;;;;;;;;;13.15;69.30;98781.31;348904;28;1430;-74
2023/03/10 00:30:15;;;;;;;;;;;;;;;13.15;69.17;98779.50;349490;28;1295;-73
2023/03/10 00:30:27;;;;;;;;;;;;;;;13.11;69.08;98779.81;347874;28;793;-73
2023/03/10 00:30:38;;;;;;;;;;;;;;;13.10;69.39;98780.75;347828;28;899;-73
2023/03/10 00:31:01;;;;;;;;;;;;;;;13.05;69.37;98780.19;350427;28;1283;-73
2023/03/10 00:31:12;;;;;;;;;;;;;;;13.05;69.60;98780.19;349291;28;1913;-74
2023/03/10 00:31:22;;;;;;;;;;;;;;;13.05;69.63;98780.19;347910;28;915;-74
2023/03/10 00:31:33;;;;;;;;;;;;;;;13.04;69.42;98778.53;346452;28;931;-74
2023/03/10 00:31:44;;;;;;;;;;;;;;;13.05;69.42;98780.19;344888;28;1392;-74
2023/03/10 00:31:54;;;;;;;;;;;;;;;13.05;69.35;98780.19;346474;28;1478;-74
2023/03/10 00:32:04;;;;;;;;;;;;;;;13.06;69.44;98781.88;347191;28;935;-73
2023/03/10 00:32:14;;;;;;;;;;;;;;;13.07;69.73;98775.69;346506;28;1393;-73
2023/03/10 00:32:25;;;;;;;;;;;;;;;13.07;69.72;98786.19;345087;28;1277;-72
2023/03/10 00:32:35;;;;;;;;;;;;;;;13.07;69.67;98779.16;343325;28;1838;-73
2023/03/10 00:32:45;;;;;;;;;;;;;;;13.08;69.46;98772.13;342609;28;1830;-74
2023/03/10 00:32:55;;;;;;;;;;;;;;;13.06;69.55;98774.84;342749;28;813;-74
2023/03/10 00:33:06;;;;;;;;;;;;;;;13.07;69.70;98783.56;340739;28;2032;-74
2023/03/10 00:33:16;;;;;;;;;;;;;;;13.06;69.73;98781.88;339322;29;2115;-73
2023/03/10 00:33:26;;;;;;;;;;;;;;;13.04;69.70;98784.63;341022;29;909;-73
2023/03/10 00:33:37;;;;;;;;;;;;;;;13.03;69.78;98777.69;339186;29;1232;-74
2023/03/10 00:33:47;;;;;;;;;;;;;;;13.00;69.59;98778.72;338439;29;1101;-74
2023/03/10 00:33:57;;;;;;;;;;;;;;;12.97;70.36;98778.94;337228;29;917;-74
2023/03/10 00:34:08;;;;;;;;;;;;;;;12.98;70.04;98777.16;334591;29;1259;-75
2023/03/10 00:34:19;;;;;;;;;;;;;;;12.99;69.94;98781.47;336281;29;1578;-74
2023/03/10 00:34:29;;;;;;;;;;;;;;;12.97;69.97;98778.94;334695;29;1886;-74
2023/03/10 00:34:39;;;;;;;;;;;;;;;12.95;69.91;98786.06;332036;29;1197;-74
2023/03/10 00:34:49;;;;;;;;;;;;;;;12.97;70.04;98778.94;333394;29;2529;-74
2023/03/10 00:35:00;;;;;;;;;;;;;;;12.97;70.03;98773.69;334121;29;2363;-74
2023/03/10 00:35:10;;;;;;;;;;;;;;;12.99;70.01;98778.84;332040;29;1181;-74
2023/03/10 00:35:20;;;;;;;;;;;;;;;12.99;69.86;98777.06;329228;29;2474;-74
2023/03/10 00:35:31;;;;;;;;;;;;;;;13.00;69.96;98773.47;328044;30;2571;-73
2023/03/10 00:35:41;;;;;;;;;;;;;;;12.98;69.75;98780.63;328372;30;812;-73
2023/03/10 00:36:07;;;;;;;;;;;;;;;12.97;69.79;98784.19;328104;30;1616;-74
2023/03/10 00:36:18;;;;;;;;;;;;;;;12.95;69.86;98780.81;324928;30;1781;-74
2023/03/10 00:36:29;;;;;;;;;;;;;;;12.92;70.14;98775.75;323278;30;2331;-74
2023/03/10 00:36:39;;;;;;;;;;;;;;;12.92;70.12;98774.91;321082;30;1277;-73
2023/03/10 00:36:49;;;;;;;;;;;;;;;12.92;69.98;98781.00;320376;30;2833;-73
2023/03/10 00:37:00;;;;;;;;;;;;;;;12.94;70.08;98779.13;320090;30;3523;-73
2023/03/10 00:37:10;;;;;;;;;;;;;;;12.94;70.31;98773.88;318816;31;1588;-73
2023/03/10 00:37:20;;;;;;;;;;;;;;;12.94;70.15;98776.50;319219;30;3454;-73
2023/03/10 00:37:30;;;;;;;;;;;;;;;12.97;69.98;98778.09;319864;30;3550;-73
2023/03/10 00:37:40;;;;;;;;;;;;;;;12.98;69.89;98775.38;321270;30;882;-73
2023/03/10 00:37:51;;;;;;;;;;;;;;;13.00;69.80;98785.75;316269;31;3116;-73
2023/03/10 00:38:02;;;;;;;;;;;;;;;13.00;69.50;98778.72;316000;31;2264;-73
2023/03/10 00:38:12;;;;;;;;;;;;;;;13.03;69.80;98782.94;314379;31;1945;-73
2023/03/10 00:38:22;;;;;;;;;;;;;;;13.05;69.47;98785.47;310857;31;1293;-73
2023/03/10 00:38:33;;;;;;;;;;;;;;;13.05;69.87;98782.84;309122;31;2483;-73
2023/03/10 00:38:43;;;;;;;;;;;;;;;13.06;69.58;98777.47;308333;31;3398;-75
2023/03/10 00:38:54;;;;;;;;;;;;;;;13.07;69.49;98778.31;310011;31;803;-74
2023/03/10 00:39:05;;;;;;;;;;;;;;;13.08;69.41;98780.00;308896;31;4182;-74
2023/03/10 00:39:15;;;;;;;;;;;;;;;13.07;69.40;98781.78;309743;31;4955;-74
2023/03/10 00:39:25;;;;;;;;;;;;;;;13.07;69.72;98778.31;312120;31;838;-74
2023/03/10 00:39:35;;;;;;;;;;;;;;;13.06;69.70;98781.88;306115;31;4976;-74
2023/03/10 00:39:49;;;;;;;;;;;;;;;13.05;69.71;98781.03;307219;31;4980;-74
2023/03/10 00:39:59;;;;;;;;;;;;;;;13.06;69.69;98784.50;306807;32;4425;-74
2023/03/10 00:40:13;;;;;;;;;;;;;;;13.06;69.57;98777.47;307758;32;1337;-77
2023/03/10 00:40:23;;;;;;;;;;;;;;;13.07;69.52;98783.56;305703;32;880;-74
2023/03/10 00:40:33;;;;;;;;;;;;;;;13.07;69.67;98788.84;304697;32;3202;-73
2023/03/10 00:40:43;;;;;;;;;;;;;;;13.08;69.59;98780.00;302527;32;3971;-74
2023/03/10 00:40:57;;;;;;;;;;;;;;;13.09;69.63;98792.19;302429;32;862;-73
2023/03/10 00:41:09;;;;;;;;;;;;;;;13.06;69.56;98782.72;299323;33;873;-75
2023/03/10 00:41:21;;;;;;;;;;;;;;;13.06;69.70;98787.16;300013;32;5925;-74
2023/03/10 00:41:41;;;;;;;;;;;;;;;13.07;69.54;98788.84;299263;32;6905;-73
2023/03/10 00:41:51;;;;;;;;;;;;;;;13.09;69.35;98786.94;294394;33;7228;-73
2023/03/10 00:42:01;;;;;;;;;;;;;;;13.07;69.36;98787.03;295042;33;6821;-73
2023/03/10 00:42:11;;;;;;;;;;;;;;;13.07;69.39;98791.47;295013;33;2635;-74
2023/03/10 00:42:21;;;;;;;;;;;;;;;13.08;69.39;98785.25;288574;34;950;-73
2023/03/10 00:42:32;;;;;;;;;;;;;;;13.09;69.31;98789.56;288807;33;4817;-73
2023/03/10 00:42:43;;;;;;;;;;;;;;;13.09;69.49;98787.78;290145;33;5143;-73
2023/03/10 00:42:53;;;;;;;;;;;;;;;13.10;69.46;98778.13;292243;33;1277;-73
2023/03/10 00:43:03;;;;;;;;;;;;;;;13.10;69.45;98788.63;289453;33;6838;-73
2023/03/10 00:43:14;;;;;;;;;;;;;;;13.09;69.45;98786.94;287208;34;7255;-73
2023/03/10 00:43:24;;;;;;;;;;;;;;;13.08;69.82;98780.00;287711;34;856;-73
2023/03/10 00:43:35;;;;;;;;;;;;;;;13.09;69.64;98786.94;283450;34;8711;-74
2023/03/10 00:43:45;;;;;;;;;;;;;;;13.09;69.68;98786.94;281718;34;10163;-74
2023/03/10 00:43:56;;;;;;;;;;;;;;;13.09;69.50;98776.44;284892;34;757;-74
2023/03/10 00:46:04;;;;;;;;;;;;;;;13.07;69.74;98786.19;2504642;27;19922;-73
2023/03/10 00:46:14;;;;;;;;;;;;;;;13.06;69.72;98781.88;356242;27;934;-73
2023/03/10 00:46:24;;;;;;;;;;;;;;;13.06;69.80;98781.88;354854;27;1335;-73
2023/03/10 00:46:37;;;;;;;;;;;;;;;13.05;69.80;98780.19;353604;28;903;-73
2023/03/10 00:46:47;;;;;;;;;;;;;;;13.04;69.88;98784.63;353535;28;835;-73
2023/03/10 00:46:57;;;;;;;;;;;;;;;13.02;69.86;98780.41;350619;28;1234;-74
2023/03/10 00:47:07;;;;;;;;;;;;;;;13.02;69.91;98785.66;350574;28;926;-73
2023/03/10 00:47:18;;;;;;;;;;;;;;;12.99;69.96;98782.31;350542;28;1628;-73
2023/03/10 00:47:28;;;;;;;;;;;;;;;12.99;69.87;98791.97;353206;28;1496;-74
2023/03/10 00:47:38;;;;;;;;;;;;;;;12.98;69.86;98785.88;352050;28;960;-73
2023/03/10 00:47:48;;;;;;;;;;;;;;;12.98;69.87;98785.03;350627;28;1182;-73
2023/03/10 00:47:59;;;;;;;;;;;;;;;12.95;70.14;98786.06;351464;28;808;-73
2023/03/10 00:48:09;;;;;;;;;;;;;;;12.93;70.31;98782.69;352012;28;780;-73
2023/03/10 00:48:19;;;;;;;;;;;;;;;12.92;70.03;98791.53;352102;28;824;-73
2023/03/10 00:48:29;;;;;;;;;;;;;;;12.90;70.39;98788.16;351850;28;1681;-74
2023/03/10 00:48:40;;;;;;;;;;;;;;;12.91;70.22;98792.47;350534;28;792;-73
2023/03/10 00:48:50;;;;;;;;;;;;;;;12.92;70.15;98790.69;351938;28;1432;-75
2023/03/10 00:49:00;;;;;;;;;;;;;;;12.91;70.07;98784.59;352040;28;898;-75
2023/03/10 00:49:13;;;;;;;;;;;;;;;12.91;70.08;98784.59;350702;28;828;-75
2023/03/10 00:49:23;;;;;;;;;;;;;;;12.91;70.22;98781.13;351953;28;1226;-75
2023/03/10 00:49:33;;;;;;;;;;;;;;;12.90;70.35;98785.53;350813;28;782;-75
2023/03/10 00:49:43;;;;;;;;;;;;;;;12.91;70.16;98789.84;351288;28;1393;-75
2023/03/10 00:49:53;;;;;;;;;;;;;;;12.92;69.99;98791.53;348975;28;1213;-75
2023/03/10 00:50:04;;;;;;;;;;;;;;;12.92;70.04;98793.31;350585;28;876;-74
2023/03/10 00:50:14;;;;;;;;;;;;;;;12.92;70.24;98791.53;351331;28;895;-74
2023/03/10 00:50:24;;;;;;;;;;;;;;;12.93;70.30;98793.22;351854;28;1033;-73
2023/03/10 00:50:35;;;;;;;;;;;;;;;12.94;70.11;98792.25;352088;28;1112;-73
2023/03/10 00:50:45;;;;;;;;;;;;;;;12.93;70.40;98793.22;351859;28;887;-73
2023/03/10 00:50:55;;;;;;;;;;;;;;;12.92;70.25;98791.53;350614;28;1240;-73
2023/03/10 00:51:05;;;;;;;;;;;;;;;12.93;69.98;98787.97;352003;28;1288;-73
2023/03/10 00:51:16;;;;;;;;;;;;;;;12.94;70.08;98799.31;349289;28;847;-73
2023/03/10 00:51:26;;;;;;;;;;;;;;;12.94;70.03;98787.00;350477;28;1250;-73
2023/03/10 00:51:36;;;;;;;;;;;;;;;12.93;70.36;98787.09;350603;28;1010;-73
2023/03/10 00:51:46;;;;;;;;;;;;;;;12.92;70.24;98791.53;350184;28;1307;-75
2023/03/10 00:51:56;;;;;;;;;;;;;;;12.93;70.11;98792.38;346879;28;1308;-73
2023/03/10 00:52:07;;;;;;;;;;;;;;;12.94;70.48;98797.53;345111;28;1323;-73
2023/03/10 00:52:17;;;;;;;;;;;;;;;12.94;70.12;98796.69;347705;28;911;-73
2023/03/10 00:52:30;;;;;;;;;;;;;;;12.91;70.19;98789.84;348334;28;1283;-73
2023/03/10 00:52:40;;;;;;;;;;;;;;;12.92;70.47;98794.16;349256;28;1132;-74
2023/03/10 00:52:50;;;;;;;;;;;;;;;12.93;70.54;98790.59;350520;28;1298;-74
2023/03/10 00:53:00;;;;;;;;;;;;;;;12.92;70.28;98796.78;349030;28;984;-74
2023/03/10 00:53:11;;;;;;;;;;;;;;;12.92;70.48;98795.94;346392;28;1192;-74
2023/03/10 00:53:21;;;;;;;;;;;;;;;12.92;70.32;98796.78;346440;28;1234;-74
2023/03/10 00:53:32;;;;;;;;;;;;;;;12.91;70.21;98800.34;349002;28;1377;-74
2023/03/10 00:53:42;;;;;;;;;;;;;;;12.90;70.40;98790.78;345720;28;1226;-74
2023/03/10 00:53:53;;;;;;;;;;;;;;;12.90;70.20;98793.41;346401;28;1365;-74
2023/03/10 00:54:03;;;;;;;;;;;;;;;12.91;70.14;98795.09;345150;28;868;-74
2023/03/10 00:54:13;;;;;;;;;;;;;;;12.90;70.18;98793.41;344256;28;1949;-75
2023/03/10 00:54:23;;;;;;;;;;;;;;;12.90;70.08;98798.66;344826;28;1364;-72
2023/03/10 00:54:34;;;;;;;;;;;;;;;12.89;70.41;98791.72;345052;28;1294;-73
2023/03/10 00:54:44;;;;;;;;;;;;;;;12.89;70.15;98796.97;344031;28;1699;-72
2023/03/10 00:54:55;;;;;;;;;;;;;;;12.89;70.07;98799.59;342856;28;1917;-73
2023/03/10 00:55:05;;;;;;;;;;;;;;;12.89;70.31;98794.34;342378;28;929;-73
2023/03/10 00:55:15;;;;;;;;;;;;;;;12.90;70.03;98792.56;339690;29;1215;-73
2023/03/10 00:55:25;;;;;;;;;;;;;;;12.90;70.28;98784.69;339846;29;860;-74
2023/03/10 00:55:35;;;;;;;;;;;;;;;12.90;70.16;98795.19;339865;29;912;-74
2023/03/10 00:56:04;;;;;;;;;;;;;;;12.91;70.11;98795.09;341762;28;1411;-74
2023/03/10 00:56:16;;;;;;;;;;;;;;;12.93;70.11;98793.22;335840;29;1696;-73
2023/03/10 00:56:26;;;;;;;;;;;;;;;12.94;70.36;98794.06;333283;29;1827;-73
2023/03/10 00:56:36;;;;;;;;;;;;;;;12.93;70.10;98798.47;328354;30;1093;-74
2023/03/10 00:56:46;;;;;;;;;;;;;;;12.93;70.13;98795.84;328112;29;2423;-75
2023/03/10 00:56:57;;;;;;;;;;;;;;;12.93;69.99;98790.59;327649;29;2117;-74
2023/03/10 00:57:07;;;;;;;;;;;;;;;12.94;69.89;98794.06;328307;30;1332;-74
2023/03/10 00:57:17;;;;;;;;;;;;;;;12.93;70.10;98790.59;329391;29;1649;-74
2023/03/10 00:57:28;;;;;;;;;;;;;;;12.93;69.99;98793.22;329418;29;840;-75
2023/03/10 00:57:38;;;;;;;;;;;;;;;12.92;69.86;98791.53;331897;29;1114;-73
2023/03/10 00:57:48;;;;;;;;;;;;;;;12.93;70.09;98792.38;331953;29;1321;-74
2023/03/10 00:57:58;;;;;;;;;;;;;;;12.91;69.98;98795.09;331767;29;2042;-73
2023/03/10 00:58:09;;;;;;;;;;;;;;;12.91;70.05;98794.25;330668;29;2055;-74
2023/03/10 00:58:19;;;;;;;;;;;;;;;12.90;70.26;98788.16;333440;29;812;-73
2023/03/10 00:58:29;;;;;;;;;;;;;;;12.90;70.01;98785.53;331470;29;2486;-75
2023/03/10 00:58:40;;;;;;;;;;;;;;;12.90;69.99;98788.16;331367;29;2554;-73
2023/03/10 00:58:52;;;;;;;;;;;;;;;12.91;70.32;98794.25;328455;30;839;-76
2023/03/10 00:59:02;;;;;;;;;;;;;;;12.88;70.55;98795.28;324400;30;2756;-72
2023/03/10 00:59:12;;;;;;;;;;;;;;;12.87;70.41;98787.50;323771;30;2659;-74
2023/03/10 00:59:23;;;;;;;;;;;;;;;12.82;70.49;98785.16;324500;30;1920;-73
2023/03/10 00:59:33;;;;;;;;;;;;;;;12.81;70.51;98793.97;324653;30;1253;-73
2023/03/10 00:59:43;;;;;;;;;;;;;;;12.81;70.60;98793.97;321389;30;1379;-73
2023/03/10 00:59:53;;;;;;;;;;;;;;;12.81;70.70;98793.13;318298;30;2166;-73
2023/03/10 01:00:05;;;;;;;;;;;;;;;12.80;70.94;98791.44;316599;31;1017;-73
2023/03/10 01:00:16;;;;;;;;;;;;;;;12.79;70.91;98790.59;317895;30;2639;-73
2023/03/10 01:00:27;;;;;;;;;;;;;;;12.79;70.92;98784.50;319839;30;2747;-73
2023/03/10 01:00:37;;;;;;;;;;;;;;;12.79;70.91;98789.75;322270;30;1248;-73
2023/03/10 01:00:47;;;;;;;;;;;;;;;12.79;70.81;98790.59;318301;30;3289;-73
2023/03/10 01:00:57;;;;;;;;;;;;;;;12.80;70.79;98794.91;321270;30;3186;-74